Time;durP1;ratioP1;P1;durP2;ratioP2;P2;SDS_P1;SDS_P2;PMS_P1;PMS_P2;Temp;Humidity;BMP_temperature;BMP_pressure;BME280_temperature;BME280_humidity;BME280_pressure;Samples;Min_cycle;Max_cycle;Signal;HPM_P1;HPM_P2
2022/07/23 00:00:00;;;;;;;6.40;6.10;;;;;;;-143.83;100.00;62900.06;5113385;27;20478;-61
2022/07/23 00:02:25;;;;;;;6.50;6.20;;;;;;;-143.83;100.00;62900.06;5109470;27;20418;-62
2022/07/23 00:04:51;;;;;;;6.40;6.10;;;;;;;-143.83;100.00;62900.06;5112637;28;20027;-62
2022/07/23 00:07:17;;;;;;;6.60;6.30;;;;;;;-143.83;100.00;62900.06;5103513;28;20055;-62
2022/07/23 00:09:42;;;;;;;6.40;6.10;;;;;;;-143.83;100.00;62900.06;5112960;28;20027;-62
2022/07/23 00:12:08;;;;;;;6.10;5.90;;;;;;;-143.83;100.00;62900.06;5112020;28;20019;-62
2022/07/23 00:14:33;;;;;;;6.45;6.15;;;;;;;-143.83;100.00;62900.06;5112468;28;20030;-62
2022/07/23 00:16:59;;;;;;;6.57;6.28;;;;;;;-143.83;100.00;62900.06;5112253;28;20084;-62
2022/07/23 00:19:25;;;;;;;6.75;6.45;;;;;;;-143.83;100.00;62900.06;5113199;27;20448;-62
2022/07/23 00:21:50;;;;;;;6.63;6.32;;;;;;;-143.83;100.00;62900.06;5112555;28;20493;-62
2022/07/23 00:24:16;;;;;;;6.50;6.20;;;;;;;-143.83;100.00;62900.06;5112430;28;20495;-62
2022/07/23 00:26:41;;;;;;;6.40;6.10;;;;;;;-143.83;100.00;62900.06;5111898;28;20038;-61
2022/07/23 00:29:06;;;;;;;6.28;6.00;;;;;;;-143.83;100.00;62900.06;5099859;28;20031;-62
2022/07/23 00:31:32;;;;;;;6.38;6.07;;;;;;;-143.83;100.00;62900.06;5112525;28;20054;-61
2022/07/23 00:34:00;;;;;;;6.18;5.97;;;;;;;-143.83;100.00;62900.06;5104107;28;20036;-61
2022/07/23 00:36:26;;;;;;;6.60;6.30;;;;;;;-143.83;100.00;62900.06;5112636;28;20023;-62
2022/07/23 00:38:52;;;;;;;6.32;6.03;;;;;;;-143.83;100.00;62900.06;5106922;28;20031;-60
2022/07/23 00:41:18;;;;;;;6.50;6.20;;;;;;;-143.83;100.00;62900.06;5106389;28;20043;-61
2022/07/23 00:43:43;;;;;;;6.20;6.00;;;;;;;-143.83;100.00;62900.06;5100764;28;20449;-62
2022/07/23 00:46:09;;;;;;;6.50;6.20;;;;;;;-143.83;100.00;62900.06;5103414;28;20024;-62
2022/07/23 00:48:34;;;;;;;6.68;6.38;;;;;;;-143.83;100.00;62900.06;5111950;28;20416;-61
2022/07/23 00:51:00;;;;;;;6.50;6.20;;;;;;;-143.83;100.00;62900.06;5103715;28;20058;-62
2022/07/23 00:53:25;;;;;;;6.65;6.35;;;;;;;-143.83;100.00;62900.06;5112114;28;20382;-62
2022/07/23 00:55:51;;;;;;;6.50;6.20;;;;;;;-143.83;100.00;62900.06;5113069;28;20397;-62
2022/07/23 00:58:19;;;;;;;6.60;6.30;;;;;;;-143.83;100.00;62900.06;5109764;28;20027;-60
2022/07/23 01:00:45;;;;;;;6.57;6.28;;;;;;;-143.83;100.00;62900.06;5103074;28;20015;-61
2022/07/23 01:03:10;;;;;;;6.45;6.15;;;;;;;-143.83;100.00;62900.06;5103449;28;20065;-62
2022/07/23 01:05:36;;;;;;;6.50;6.20;;;;;;;-143.83;100.00;62900.06;5111910;28;20024;-62
2022/07/23 01:08:02;;;;;;;6.40;6.10;;;;;;;-143.83;100.00;62900.06;5111756;28;20105;-61
2022/07/23 01:10:30;;;;;;;6.60;6.30;;;;;;;-143.83;100.00;62900.06;5112607;28;20483;-61
2022/07/23 01:12:56;;;;;;;6.40;6.10;;;;;;;-143.83;100.00;62900.06;5111992;28;20026;-61
2022/07/23 01:15:22;;;;;;;7.00;6.70;;;;;;;-143.83;100.00;62900.06;5107170;28;20106;-61
2022/07/23 01:17:48;;;;;;;6.38;6.07;;;;;;;-143.83;100.00;62900.06;5100626;28;20019;-62
2022/07/23 01:20:13;;;;;;;6.20;6.00;;;;;;;-143.83;100.00;62900.06;5111508;28;20379;-62
2022/07/23 01:22:39;;;;;;;6.10;5.90;;;;;;;-143.83;100.00;62900.06;5112102;28;20019;-62
2022/07/23 01:25:05;;;;;;;6.18;5.95;;;;;;;-143.83;100.00;62900.06;5105872;28;20028;-61
2022/07/23 01:27:30;;;;;;;6.70;6.40;;;;;;;-143.83;100.00;62900.06;5116045;28;20023;-63
2022/07/23 01:29:59;;;;;;;6.50;6.20;;;;;;;-143.83;100.00;62900.06;5116004;28;20360;-62
2022/07/23 01:32:24;;;;;;;6.60;6.30;;;;;;;-143.83;100.00;62900.06;5115902;28;20028;-62
2022/07/23 01:34:50;;;;;;;6.70;6.40;;;;;;;-143.83;100.00;62900.06;5115662;28;20417;-61
2022/07/23 01:37:15;;;;;;;6.45;6.15;;;;;;;-143.83;100.00;62900.06;5114801;28;20027;-61
2022/07/23 01:39:41;;;;;;;6.45;6.15;;;;;;;-143.83;100.00;62900.06;5102560;28;20425;-61
2022/07/23 01:42:06;;;;;;;6.68;6.38;;;;;;;-143.83;100.00;62900.06;5115108;27;20044;-63
2022/07/23 01:44:32;;;;;;;6.55;6.25;;;;;;;-143.83;100.00;62900.06;5115908;27;20024;-62
2022/07/23 01:46:57;;;;;;;6.50;6.20;;;;;;;-143.83;100.00;62900.06;5115174;28;20019;-62
2022/07/23 01:49:23;;;;;;;6.50;6.20;;;;;;;-143.83;100.00;62900.06;5126388;27;20106;-62
2022/07/23 01:52:00;;;;;;;6.50;6.20;;;;;;;-143.83;100.00;62900.06;5117534;27;20046;-62
2022/07/23 01:54:28;;;;;;;6.45;6.15;;;;;;;-143.83;100.00;62900.06;5115273;27;20113;-61
2022/07/23 01:56:53;;;;;;;6.70;6.40;;;;;;;-143.83;100.00;62900.06;5114349;28;20027;-61
2022/07/23 01:59:19;;;;;;;6.47;6.18;;;;;;;-143.83;100.00;62900.06;5117144;27;20024;-61
2022/07/23 02:01:44;;;;;;;6.70;6.40;;;;;;;-143.83;100.00;62900.06;5115435;28;20503;-62
2022/07/23 02:04:10;;;;;;;6.80;6.50;;;;;;;-143.83;100.00;62900.06;5115096;28;20073;-63
2022/07/23 02:06:35;;;;;;;6.70;6.40;;;;;;;-143.83;100.00;62900.06;5115012;28;20027;-62
2022/07/23 02:09:01;;;;;;;6.70;6.40;;;;;;;-143.83;100.00;62900.06;5112193;28;20031;-62
2022/07/23 02:11:26;;;;;;;6.75;6.45;;;;;;;-143.83;100.00;62900.06;5104147;28;20102;-61
2022/07/23 02:13:52;;;;;;;6.45;6.15;;;;;;;-143.83;100.00;62900.06;5114831;28;20418;-61
2022/07/23 02:16:17;;;;;;;6.80;6.50;;;;;;;-143.83;100.00;62900.06;5109635;27;20020;-62
2022/07/23 02:18:43;;;;;;;6.43;6.13;;;;;;;-143.83;100.00;62900.06;5114760;28;20395;-61
2022/07/23 02:21:08;;;;;;;6.70;6.40;;;;;;;-143.83;100.00;62900.06;5126125;27;20027;-62
2022/07/23 02:23:34;;;;;;;6.50;6.20;;;;;;;-143.83;100.00;62900.06;5117408;27;20035;-62
2022/07/23 02:25:59;;;;;;;6.57;6.28;;;;;;;-143.83;100.00;62900.06;5114557;28;20027;-62
2022/07/23 02:28:25;;;;;;;6.60;6.30;;;;;;;-143.83;100.00;62900.06;5110974;28;20030;-61
2022/07/23 02:30:50;;;;;;;6.60;6.30;;;;;;;-143.83;100.00;62900.06;5104645;28;20027;-62
2022/07/23 02:33:16;;;;;;;6.40;6.10;;;;;;;-143.83;100.00;62900.06;5114542;27;20031;-61
2022/07/23 02:35:41;;;;;;;6.50;6.20;;;;;;;-143.83;100.00;62900.06;5125819;27;20410;-61
2022/07/23 02:38:07;;;;;;;6.13;5.93;;;;;;;-143.83;100.00;62900.06;5114803;28;20027;-61
2022/07/23 02:40:32;;;;;;;6.55;6.25;;;;;;;-143.83;100.00;62900.06;5114353;28;20051;-61
2022/07/23 02:42:58;;;;;;;6.40;6.10;;;;;;;-143.83;100.00;62900.06;5115053;28;20422;-62
2022/07/23 02:45:23;;;;;;;6.25;6.03;;;;;;;-143.83;100.00;62900.06;5109059;28;20446;-62
2022/07/23 02:47:49;;;;;;;6.40;6.10;;;;;;;-143.83;100.00;62900.06;5114982;27;20028;-62
2022/07/23 02:50:14;;;;;;;6.50;6.20;;;;;;;-143.83;100.00;62900.06;5105094;27;20035;-62
2022/07/23 02:52:40;;;;;;;6.30;6.05;;;;;;;-143.83;100.00;62900.06;5120210;27;20046;-61
2022/07/23 02:55:06;;;;;;;6.40;6.10;;;;;;;-143.83;100.00;62900.06;5115106;27;20065;-61
2022/07/23 02:57:32;;;;;;;6.50;6.20;;;;;;;-143.83;100.00;62900.06;5113666;28;20028;-60
2022/07/23 02:59:57;;;;;;;6.68;6.38;;;;;;;-143.83;100.00;62900.06;5114171;28;20031;-62
2022/07/23 03:02:23;;;;;;;6.50;6.20;;;;;;;-143.83;100.00;62900.06;5100628;28;20351;-61
2022/07/23 03:04:50;;;;;;;6.57;6.28;;;;;;;-143.83;100.00;62900.06;5114180;28;20027;-62
2022/07/23 03:07:17;;;;;;;6.43;6.13;;;;;;;-143.83;100.00;62900.06;5105520;27;20036;-61
2022/07/23 03:09:42;;;;;;;6.60;6.30;;;;;;;-143.83;100.00;62900.06;5113665;28;20080;-61
2022/07/23 03:12:08;;;;;;;6.68;6.38;;;;;;;-143.83;100.00;62900.06;5103150;28;20395;-61
2022/07/23 03:14:33;;;;;;;6.82;6.53;;;;;;;-143.83;100.00;62900.06;5113397;28;20047;-61
2022/07/23 03:17:00;;;;;;;7.00;6.70;;;;;;;-143.83;100.00;62900.06;5113469;28;20023;-62
2022/07/23 03:19:26;;;;;;;6.70;6.40;;;;;;;-143.83;100.00;62900.06;5113052;28;20076;-61
2022/07/23 03:21:51;;;;;;;6.43;6.13;;;;;;;-143.83;100.00;62900.06;5114017;28;20019;-62
2022/07/23 03:24:19;;;;;;;6.78;6.47;;;;;;;-143.83;100.00;62900.06;5104837;28;20475;-62
2022/07/23 03:26:45;;;;;;;6.63;6.32;;;;;;;-143.83;100.00;62900.06;5113379;28;20111;-61
2022/07/23 03:29:11;;;;;;;6.78;6.47;;;;;;;-143.83;100.00;62900.06;5112941;28;20125;-62
2022/07/23 03:31:37;;;;;;;6.57;6.28;;;;;;;-143.83;100.00;62900.06;5100497;28;20496;-62
2022/07/23 03:34:02;;;;;;;6.82;6.53;;;;;;;-143.83;100.00;62900.06;5113277;28;20112;-61
2022/07/23 03:36:28;;;;;;;6.60;6.30;;;;;;;-143.83;100.00;62900.06;5113270;28;20020;-62
2022/07/23 03:38:54;;;;;;;6.65;6.35;;;;;;;-143.83;100.00;62900.06;5113213;28;20165;-61
2022/07/23 03:41:20;;;;;;;6.80;6.50;;;;;;;-143.83;100.00;62900.06;5113857;27;20061;-62
2022/07/23 03:43:46;;;;;;;6.53;6.22;;;;;;;-143.83;100.00;62900.06;5126481;27;20035;-62
2022/07/23 03:46:12;;;;;;;6.57;6.28;;;;;;;-143.83;100.00;62900.06;5112684;28;20024;-62
2022/07/23 03:48:38;;;;;;;6.80;6.50;;;;;;;-143.83;100.00;62900.06;5112514;28;20015;-62
2022/07/23 03:51:03;;;;;;;6.55;6.25;;;;;;;-143.83;100.00;62900.06;5109967;28;20042;-61
2022/07/23 03:53:29;;;;;;;6.80;6.50;;;;;;;-143.83;100.00;62900.06;5092622;28;20024;-61
2022/07/23 03:55:55;;;;;;;6.70;6.40;;;;;;;-143.83;100.00;62900.06;5107906;28;20168;-61
2022/07/23 03:58:20;;;;;;;6.70;6.40;;;;;;;-143.83;100.00;62900.06;5112654;27;20023;-61
2022/07/23 04:00:46;;;;;;;6.90;6.60;;;;;;;-143.83;100.00;62900.06;5112747;28;20463;-61
2022/07/23 04:03:11;;;;;;;6.78;6.47;;;;;;;-143.83;100.00;62900.06;5112428;28;20027;-61
2022/07/23 04:05:37;;;;;;;7.00;6.70;;;;;;;-143.83;100.00;62900.06;5112712;28;20513;-61
2022/07/23 04:08:02;;;;;;;6.80;6.50;;;;;;;-143.83;100.00;62900.06;5112929;28;20077;-62
2022/07/23 04:10:28;;;;;;;6.85;6.55;;;;;;;-143.83;100.00;62900.06;5101029;27;20059;-61
2022/07/23 04:12:53;;;;;;;6.80;6.50;;;;;;;-143.83;100.00;62900.06;5110304;28;20019;-61
2022/07/23 04:15:19;;;;;;;6.70;6.40;;;;;;;-143.83;100.00;62900.06;5112520;27;20030;-61
2022/07/23 04:17:46;;;;;;;7.00;6.70;;;;;;;-143.83;100.00;62900.06;5112696;28;20028;-61
2022/07/23 04:20:12;;;;;;;6.90;6.60;;;;;;;-143.83;100.00;62900.06;5112723;28;20364;-61
2022/07/23 04:22:38;;;;;;;6.97;6.68;;;;;;;-143.83;100.00;62900.06;5108790;28;20383;-62
2022/07/23 04:25:04;;;;;;;7.13;6.82;;;;;;;-143.83;100.00;62900.06;5103074;28;20480;-62
2022/07/23 04:27:33;;;;;;;6.90;6.60;;;;;;;-143.83;100.00;62900.06;5098816;28;20142;-63
2022/07/23 04:29:58;;;;;;;6.97;6.68;;;;;;;-143.83;100.00;62900.06;5110955;28;20490;-62
2022/07/23 04:32:24;;;;;;;7.00;6.70;;;;;;;-143.83;100.00;62900.06;5103728;27;20030;-62
2022/07/23 04:34:50;;;;;;;7.07;6.78;;;;;;;-143.83;100.00;62900.06;5110646;28;20024;-61
2022/07/23 04:37:15;;;;;;;7.15;6.85;;;;;;;-143.83;100.00;62900.06;5112271;28;20030;-62
2022/07/23 04:39:41;;;;;;;7.10;6.80;;;;;;;-143.83;100.00;62900.06;5113410;27;20023;-62
2022/07/23 04:42:06;;;;;;;7.07;6.78;;;;;;;-143.83;100.00;62900.06;5111881;28;20093;-61
2022/07/23 04:44:32;;;;;;;6.80;6.50;;;;;;;-143.83;100.00;62900.06;5111769;28;20106;-62
2022/07/23 04:46:57;;;;;;;7.00;6.70;;;;;;;-143.83;100.00;62900.06;5112307;28;20028;-62
2022/07/23 04:49:23;;;;;;;6.70;6.40;;;;;;;-143.83;100.00;62900.06;5108392;28;20031;-61
2022/07/23 04:51:48;;;;;;;6.70;6.40;;;;;;;-143.83;100.00;62900.06;5111473;28;20051;-62
2022/07/23 04:54:14;;;;;;;6.90;6.60;;;;;;;-143.83;100.00;62900.06;5112279;28;20034;-62
2022/07/23 04:56:39;;;;;;;6.90;6.60;;;;;;;-143.83;100.00;62900.06;5109985;28;20467;-62
2022/07/23 04:59:05;;;;;;;6.72;6.43;;;;;;;-143.83;100.00;62900.06;5114715;28;20028;-62
2022/07/23 05:01:30;;;;;;;7.00;6.70;;;;;;;-143.83;100.00;62900.06;5116189;28;20020;-62
2022/07/23 05:03:56;;;;;;;7.00;6.70;;;;;;;-143.83;100.00;62900.06;5105020;28;20122;-62
2022/07/23 05:06:21;;;;;;;7.10;6.80;;;;;;;-143.83;100.00;62900.06;5117142;27;20118;-61
2022/07/23 05:08:46;;;;;;;7.20;6.90;;;;;;;-143.83;100.00;62900.06;5117899;27;20073;-62
2022/07/23 05:11:12;;;;;;;7.28;6.97;;;;;;;-143.83;100.00;62900.06;5109145;28;20027;-62
2022/07/23 05:13:38;;;;;;;7.10;6.80;;;;;;;-143.83;100.00;62900.06;5107775;28;20101;-62
2022/07/23 05:16:03;;;;;;;7.20;6.90;;;;;;;-143.83;100.00;62900.06;5118731;27;20166;-62
2022/07/23 05:18:29;;;;;;;7.00;6.70;;;;;;;-143.83;100.00;62900.06;5114976;28;20035;-62
2022/07/23 05:20:54;;;;;;;6.97;6.68;;;;;;;-143.83;100.00;62900.06;5116045;28;20032;-64
2022/07/23 05:23:20;;;;;;;7.07;6.78;;;;;;;-143.83;100.00;62900.06;5116706;27;20106;-63
2022/07/23 05:25:45;;;;;;;7.00;6.70;;;;;;;-143.83;100.00;62900.06;5115741;28;20107;-61
2022/07/23 05:28:11;;;;;;;7.15;6.85;;;;;;;-143.83;100.00;62900.06;5114800;28;20022;-62
2022/07/23 05:30:36;;;;;;;7.15;6.85;;;;;;;-143.83;100.00;62900.06;5122826;27;20023;-61
2022/07/23 05:33:02;;;;;;;6.93;6.63;;;;;;;-143.83;100.00;62900.06;5120202;27;20033;-63
2022/07/23 05:35:28;;;;;;;7.03;6.72;;;;;;;-143.83;100.00;62900.06;5108218;28;20097;-62
2022/07/23 05:37:53;;;;;;;7.07;6.78;;;;;;;-143.83;100.00;62900.06;5116128;27;20046;-62
2022/07/23 05:40:19;;;;;;;6.97;6.68;;;;;;;-143.83;100.00;62900.06;5112611;27;20383;-62
2022/07/23 05:42:44;;;;;;;7.30;7.00;;;;;;;-143.83;100.00;62900.06;5115589;28;20027;-62
2022/07/23 05:45:10;;;;;;;7.20;6.90;;;;;;;-143.83;100.00;62900.06;5106028;27;20517;-62
2022/07/23 05:47:47;;;;;;;7.07;6.78;;;;;;;-143.83;100.00;62900.06;5115175;28;20068;-62
2022/07/23 05:50:13;;;;;;;7.47;7.18;;;;;;;-143.83;100.00;62900.06;5115314;28;20164;-62
2022/07/23 05:52:39;;;;;;;7.28;6.97;;;;;;;-143.83;100.00;62900.06;5109878;28;20027;-62
2022/07/23 05:55:06;;;;;;;7.35;7.05;;;;;;;-143.83;100.00;62900.06;5115405;27;20023;-62
2022/07/23 05:57:31;;;;;;;7.18;6.88;;;;;;;-143.83;100.00;62900.06;5122015;27;20382;-62
2022/07/23 05:59:57;;;;;;;7.00;6.70;;;;;;;-143.83;100.00;62900.06;5109509;28;20030;-61
2022/07/23 06:02:23;;;;;;;7.30;7.00;;;;;;;-143.83;100.00;62900.06;5107190;28;20105;-62
2022/07/23 06:04:48;;;;;;;7.07;6.78;;;;;;;-143.83;100.00;62900.06;5115043;28;20475;-61
2022/07/23 06:07:14;;;;;;;7.07;6.78;;;;;;;-143.83;100.00;62900.06;5114223;27;20042;-61
2022/07/23 06:09:39;;;;;;;7.13;6.82;;;;;;;-143.83;100.00;62900.06;5124734;27;20392;-61
2022/07/23 06:12:05;;;;;;;7.03;6.72;;;;;;;-143.83;100.00;62900.06;5113481;27;20470;-62
2022/07/23 06:14:31;;;;;;;7.28;6.97;;;;;;;-143.83;100.00;62900.06;5121945;27;20068;-62
2022/07/23 06:16:56;;;;;;;7.00;6.70;;;;;;;-143.83;100.00;62900.06;5111967;28;20031;-61
2022/07/23 06:19:22;;;;;;;7.10;6.80;;;;;;;-143.83;100.00;62900.06;5106009;28;20106;-62
2022/07/23 06:21:47;;;;;;;7.10;6.80;;;;;;;-143.83;100.00;62900.06;5114193;28;20094;-61
2022/07/23 06:24:13;;;;;;;7.40;7.10;;;;;;;-143.83;100.00;62900.06;5110406;28;20107;-61
2022/07/23 06:26:38;;;;;;;7.40;7.10;;;;;;;-143.83;100.00;62900.06;5104231;28;20024;-62
2022/07/23 06:29:04;;;;;;;7.10;6.80;;;;;;;-143.83;100.00;62900.06;5114073;28;20031;-62
2022/07/23 06:31:29;;;;;;;7.35;7.05;;;;;;;-143.83;100.00;62900.06;5104579;27;20394;-61
2022/07/23 06:33:55;;;;;;;7.55;7.25;;;;;;;-143.83;100.00;62900.06;5115326;27;20028;-62
2022/07/23 06:36:20;;;;;;;7.40;7.10;;;;;;;-143.83;100.00;62900.06;5114183;28;20066;-62
2022/07/23 06:38:46;;;;;;;7.20;6.90;;;;;;;-143.83;100.00;62900.06;5114485;28;20046;-61
2022/07/23 06:41:11;;;;;;;7.32;7.03;;;;;;;-143.83;100.00;62900.06;5107827;28;20123;-60
2022/07/23 06:43:37;;;;;;;7.20;6.90;;;;;;;-143.83;100.00;62900.06;5105475;28;20084;-62
2022/07/23 06:46:04;;;;;;;7.47;7.18;;;;;;;-143.83;100.00;62900.06;5099866;28;20035;-62
2022/07/23 06:48:29;;;;;;;7.35;7.05;;;;;;;-143.83;100.00;62900.06;5106996;27;20031;-62
2022/07/23 06:50:55;;;;;;;7.50;7.20;;;;;;;-143.83;100.00;62900.06;5115167;27;20386;-63
2022/07/23 06:53:20;;;;;;;7.45;7.15;;;;;;;-143.83;100.00;62900.06;5102032;27;20387;-62
2022/07/23 06:55:46;;;;;;;7.45;7.15;;;;;;;-143.83;100.00;62900.06;5109330;28;20023;-62
2022/07/23 06:58:13;;;;;;;7.30;7.00;;;;;;;-143.83;100.00;62900.06;5113612;28;20503;-61
2022/07/23 07:00:39;;;;;;;7.32;7.03;;;;;;;-143.83;100.00;62900.06;5113665;28;20692;-62
2022/07/23 07:03:05;;;;;;;7.20;6.90;;;;;;;-143.83;100.00;62900.06;5113438;28;20060;-62
2022/07/23 07:05:30;;;;;;;7.10;6.80;;;;;;;-143.83;100.00;62900.06;5105071;27;20041;-61
2022/07/23 07:07:56;;;;;;;7.28;6.97;;;;;;;-143.83;100.00;62900.06;5108557;28;20421;-65
2022/07/23 07:10:22;;;;;;;7.10;6.80;;;;;;;-143.83;100.00;62900.06;5124124;27;20035;-62
2022/07/23 07:12:47;;;;;;;7.20;6.90;;;;;;;-143.83;100.00;62900.06;5102711;28;20032;-62
2022/07/23 07:15:13;;;;;;;7.13;6.82;;;;;;;-143.83;100.00;62900.06;5106415;27;20044;-61
2022/07/23 07:17:39;;;;;;;7.30;7.00;;;;;;;-143.83;100.00;62900.06;5115099;27;20019;-61
2022/07/23 07:20:05;;;;;;;7.50;7.20;;;;;;;-143.83;100.00;62900.06;5111905;27;20027;-62
2022/07/23 07:22:30;;;;;;;7.45;7.15;;;;;;;-143.83;100.00;62900.06;5102101;27;20023;-61
2022/07/23 07:24:56;;;;;;;7.20;6.90;;;;;;;-143.83;100.00;62900.06;5123983;27;20386;-62
2022/07/23 07:27:21;;;;;;;7.32;7.03;;;;;;;-143.83;100.00;62900.06;5112261;27;20073;-62
2022/07/23 07:29:47;;;;;;;7.30;7.00;;;;;;;-143.83;100.00;62900.06;5111321;27;20042;-63
2022/07/23 07:32:12;;;;;;;7.38;7.07;;;;;;;-143.83;100.00;62900.06;5101770;27;20490;-62
2022/07/23 07:34:38;;;;;;;7.20;6.90;;;;;;;-143.83;100.00;62900.06;5122772;27;20034;-61
2022/07/23 07:37:03;;;;;;;7.30;7.00;;;;;;;-143.83;100.00;62900.06;5102309;27;20464;-61
2022/07/23 07:39:29;;;;;;;7.22;6.93;;;;;;;-143.83;100.00;62900.06;5104082;27;20027;-62
2022/07/23 07:41:54;;;;;;;7.07;6.78;;;;;;;-143.83;100.00;62900.06;5123239;27;20050;-62
2022/07/23 07:44:20;;;;;;;7.28;6.97;;;;;;;-143.83;100.00;62900.06;5103689;27;20030;-62
2022/07/23 07:46:45;;;;;;;7.20;6.90;;;;;;;-143.83;100.00;62900.06;5116887;27;20762;-62
2022/07/23 07:49:11;;;;;;;7.20;6.90;;;;;;;-143.83;100.00;62900.06;5109666;27;20386;-61
2022/07/23 07:51:37;;;;;;;7.30;7.00;;;;;;;-143.83;100.00;62900.06;5118090;27;20019;-62
2022/07/23 07:54:02;;;;;;;6.80;6.50;;;;;;;-143.83;100.00;62900.06;5129328;27;20456;-61
2022/07/23 07:56:28;;;;;;;6.80;6.50;;;;;;;-143.83;100.00;62900.06;5099701;27;20023;-61
2022/07/23 07:58:53;;;;;;;6.90;6.60;;;;;;;-143.83;100.00;62900.06;5113655;27;20034;-61
2022/07/23 08:01:19;;;;;;;6.80;6.50;;;;;;;-143.83;100.00;62900.06;5096632;28;20036;-62
2022/07/23 08:03:45;;;;;;;6.63;6.32;;;;;;;-143.83;100.00;62900.06;5100368;27;20073;-62
2022/07/23 08:06:11;;;;;;;6.55;6.25;;;;;;;-143.83;100.00;62900.06;5110501;28;20027;-62
2022/07/23 08:08:37;;;;;;;6.63;6.32;;;;;;;-143.83;100.00;62900.06;5112413;27;20038;-62
2022/07/23 08:11:02;;;;;;;6.80;6.50;;;;;;;-143.83;100.00;62900.06;5112015;27;20064;-62
2022/07/23 08:13:28;;;;;;;6.65;6.35;;;;;;;-143.83;100.00;62900.06;5104591;27;20050;-62
2022/07/23 08:15:53;;;;;;;6.60;6.30;;;;;;;-143.83;100.00;62900.06;5100026;28;20027;-63
2022/07/23 08:18:20;;;;;;;6.65;6.35;;;;;;;-143.83;100.00;62900.06;5096998;28;20062;-61
2022/07/23 08:20:46;;;;;;;6.80;6.50;;;;;;;-143.83;100.00;62900.06;5111756;28;20038;-61
2022/07/23 08:23:11;;;;;;;6.90;6.60;;;;;;;-143.83;100.00;62900.06;5111612;28;20016;-62
2022/07/23 08:25:42;;;;;;;6.97;6.68;;;;;;;-143.83;100.00;62900.06;5113270;27;20027;-63
2022/07/23 08:28:09;;;;;;;6.78;6.47;;;;;;;-143.83;100.00;62900.06;5112438;28;20031;-62
2022/07/23 08:30:36;;;;;;;6.53;6.22;;;;;;;-143.83;100.00;62900.06;5111448;28;20486;-62
2022/07/23 08:33:04;;;;;;;6.90;6.60;;;;;;;-143.83;100.00;62900.06;5092668;28;20035;-62
2022/07/23 08:35:35;;;;;;;6.80;6.50;;;;;;;-143.83;100.00;62900.06;5105600;28;20031;-61
2022/07/23 08:38:06;;;;;;;6.70;6.40;;;;;;;-143.83;100.00;62900.06;5112497;28;20019;-61
2022/07/23 08:40:35;;;;;;;6.70;6.40;;;;;;;-143.83;100.00;62900.06;5112060;28;20016;-62
2022/07/23 08:43:08;;;;;;;6.72;6.43;;;;;;;-143.83;100.00;62900.06;5111958;28;20398;-62
2022/07/23 08:45:39;;;;;;;6.80;6.50;;;;;;;-143.83;100.00;62900.06;5109761;28;20039;-61
2022/07/23 08:48:08;;;;;;;6.70;6.40;;;;;;;-143.83;100.00;62900.06;5097939;28;20028;-62
2022/07/23 08:50:36;;;;;;;6.65;6.35;;;;;;;-143.83;100.00;62900.06;5112225;28;20475;-61
2022/07/23 08:53:04;;;;;;;6.60;6.30;;;;;;;-143.83;100.00;62900.06;5112266;28;20050;-62
2022/07/23 08:55:30;;;;;;;6.60;6.30;;;;;;;-143.83;100.00;62900.06;5111801;28;20024;-61
2022/07/23 08:57:55;;;;;;;6.55;6.25;;;;;;;-143.83;100.00;62900.06;5112032;28;20032;-62
2022/07/23 09:00:22;;;;;;;6.60;6.30;;;;;;;-143.83;100.00;62900.06;5112076;28;20020;-62
2022/07/23 09:02:49;;;;;;;6.70;6.40;;;;;;;-143.83;100.00;62900.06;5111655;28;20020;-62
2022/07/23 09:05:15;;;;;;;6.70;6.40;;;;;;;-143.83;100.00;62900.06;5099522;28;20110;-62
2022/07/23 09:08:04;;;;;;;6.53;6.22;;;;;;;-143.83;100.00;62900.06;5112209;28;20061;-61
2022/07/23 09:10:42;;;;;;;6.55;6.25;;;;;;;-143.83;100.00;62900.06;5111828;28;20032;-61
2022/07/23 09:13:23;;;;;;;6.55;6.25;;;;;;;-143.83;100.00;62900.06;5112308;28;20460;-62
2022/07/23 09:15:50;;;;;;;6.32;6.05;;;;;;;-143.83;100.00;62900.06;5111776;28;20479;-62
2022/07/23 09:18:16;;;;;;;6.40;6.10;;;;;;;-143.83;100.00;62900.06;5111713;28;20036;-62
2022/07/23 09:20:43;;;;;;;6.50;6.20;;;;;;;-143.83;100.00;62900.06;5111289;28;20023;-62
2022/07/23 09:23:09;;;;;;;6.70;6.40;;;;;;;-143.83;100.00;62900.06;5110464;28;20504;-62
2022/07/23 09:25:34;;;;;;;6.60;6.30;;;;;;;-143.83;100.00;62900.06;5110867;28;20051;-62
2022/07/23 09:28:02;;;;;;;6.63;6.32;;;;;;;-143.83;100.00;62900.06;5111863;28;20043;-62
2022/07/23 09:30:31;;;;;;;6.68;6.38;;;;;;;-143.83;100.00;62900.06;5102031;28;20036;-61
2022/07/23 09:33:15;;;;;;;6.70;6.40;;;;;;;-143.83;100.00;62900.06;5111584;28;20031;-61
2022/07/23 09:35:54;;;;;;;6.40;6.10;;;;;;;-143.83;100.00;62900.06;5111830;28;20462;-63
2022/07/23 09:38:24;;;;;;;6.40;6.10;;;;;;;-143.83;100.00;62900.06;5100296;28;20052;-62
2022/07/23 09:41:09;;;;;;;6.60;6.30;;;;;;;-143.83;100.00;62900.06;5110224;28;20082;-62
2022/07/23 09:43:35;;;;;;;6.80;6.50;;;;;;;-143.83;100.00;62900.06;5111739;28;20072;-62
2022/07/23 09:46:22;;;;;;;6.78;6.47;;;;;;;-143.83;100.00;62900.06;5114056;28;20020;-62
2022/07/23 09:48:48;;;;;;;6.70;6.40;;;;;;;-143.83;100.00;62900.06;5114726;28;20038;-63
2022/07/23 09:51:17;;;;;;;6.70;6.40;;;;;;;-143.83;100.00;62900.06;5104202;28;20020;-62
2022/07/23 09:53:42;;;;;;;6.57;6.28;;;;;;;-143.83;100.00;62900.06;5101360;28;20039;-62
2022/07/23 09:56:08;;;;;;;6.50;6.20;;;;;;;-143.83;100.00;62900.06;5115031;28;20024;-62
2022/07/23 09:58:43;;;;;;;6.65;6.35;;;;;;;-143.83;100.00;62900.06;5115114;28;20501;-62
2022/07/23 10:01:10;;;;;;;6.70;6.40;;;;;;;-143.83;100.00;62900.06;5112930;27;20023;-62
2022/07/23 10:03:36;;;;;;;6.53;6.22;;;;;;;-143.83;100.00;62900.06;5119973;27;20034;-62
2022/07/23 10:06:01;;;;;;;6.50;6.20;;;;;;;-143.83;100.00;62900.06;5114709;28;20019;-62
2022/07/23 10:08:28;;;;;;;6.60;6.30;;;;;;;-143.83;100.00;62900.06;5114911;28;20023;-62
2022/07/23 10:10:54;;;;;;;6.75;6.45;;;;;;;-143.83;100.00;62900.06;5114759;28;20024;-63
2022/07/23 10:15:54;;;;;;;6.60;6.30;;;;;;;-143.83;100.00;62900.06;5114927;28;20513;-62
2022/07/23 10:18:20;;;;;;;6.60;6.30;;;;;;;-143.83;100.00;62900.06;5116035;27;20032;-63
2022/07/23 10:20:47;;;;;;;6.38;6.07;;;;;;;-143.83;100.00;62900.06;5122135;27;20490;-62
2022/07/23 10:23:33;;;;;;;6.40;6.10;;;;;;;-143.83;100.00;62900.06;5117558;27;20055;-62
2022/07/23 10:26:10;;;;;;;6.70;6.40;;;;;;;-143.83;100.00;62900.06;5105181;28;20372;-62
2022/07/23 10:29:31;;;;;;;6.70;6.40;;;;;;;-143.83;100.00;62900.06;5095445;28;20043;-62
2022/07/23 10:32:21;;;;;;;6.70;6.40;;;;;;;-143.83;100.00;62900.06;5098726;28;20517;-62
2022/07/23 10:34:58;;;;;;;6.60;6.30;;;;;;;-143.83;100.00;62900.06;5104721;28;20493;-61
2022/07/23 10:37:32;;;;;;;6.60;6.30;;;;;;;-143.83;100.00;62900.06;5113321;28;20023;-62
2022/07/23 10:40:11;;;;;;;6.60;6.30;;;;;;;-143.83;100.00;62900.06;5114173;27;20051;-62
2022/07/23 10:42:38;;;;;;;6.53;6.22;;;;;;;-143.83;100.00;62900.06;5122108;27;20852;-62
2022/07/23 10:45:28;;;;;;;6.50;6.20;;;;;;;-143.83;100.00;62900.06;5120309;27;20063;-62
2022/07/23 10:47:54;;;;;;;6.70;6.40;;;;;;;-143.83;100.00;62900.06;5113723;27;20511;-62
2022/07/23 10:50:31;;;;;;;6.63;6.32;;;;;;;-143.83;100.00;62900.06;5108705;28;20475;-61
2022/07/23 10:53:06;;;;;;;6.80;6.50;;;;;;;-143.83;100.00;62900.06;5108581;28;20016;-62
2022/07/23 10:55:31;;;;;;;6.70;6.40;;;;;;;-143.83;100.00;62900.06;5113115;27;20058;-61
2022/07/23 10:57:57;;;;;;;6.60;6.30;;;;;;;-143.83;100.00;62900.06;5115583;27;20062;-61
2022/07/23 11:00:25;;;;;;;6.70;6.40;;;;;;;-143.83;100.00;62900.06;5117037;27;20020;-62
2022/07/23 11:03:14;;;;;;;6.50;6.20;;;;;;;-143.83;100.00;62900.06;5110181;27;20045;-62
2022/07/23 11:05:45;;;;;;;6.47;6.18;;;;;;;-143.83;100.00;62900.06;5098754;28;20291;-62
2022/07/23 11:08:16;;;;;;;6.60;6.30;;;;;;;-143.83;100.00;62900.06;5103219;27;20024;-61
2022/07/23 11:11:03;;;;;;;6.60;6.30;;;;;;;-143.83;100.00;62900.06;5104108;27;20134;-62